sensor_id;sensor_type;location;lat;lon;timestamp;temperature;humidity
27671;DHT22;15077;49.704;9.908;2023-03-01T00:00:16;2.70;57.60
27671;DHT22;15077;49.704;9.908;2023-03-01T00:02:42;2.70;57.60
27671;DHT22;15077;49.704;9.908;2023-03-01T00:05:07;2.70;57.60
27671;DHT22;15077;49.704;9.908;2023-03-01T00:07:33;2.70;57.70
27671;DHT22;15077;49.704;9.908;2023-03-01T00:09:59;2.70;57.80
27671;DHT22;15077;49.704;9.908;2023-03-01T00:12:25;2.60;57.80
27671;DHT22;15077;49.704;9.908;2023-03-01T00:14:50;2.60;57.80
27671;DHT22;15077;49.704;9.908;2023-03-01T00:17:16;2.50;57.80
27671;DHT22;15077;49.704;9.908;2023-03-01T00:19:42;2.50;57.80
27671;DHT22;15077;49.704;9.908;2023-03-01T00:22:08;2.50;58.30
27671;DHT22;15077;49.704;9.908;2023-03-01T00:24:33;2.50;58.00
27671;DHT22;15077;49.704;9.908;2023-03-01T00:26:59;2.50;58.00
27671;DHT22;15077;49.704;9.908;2023-03-01T00:29:25;2.40;58.00
27671;DHT22;15077;49.704;9.908;2023-03-01T00:31:51;2.40;58.00
27671;DHT22;15077;49.704;9.908;2023-03-01T00:34:17;2.40;58.00
27671;DHT22;15077;49.704;9.908;2023-03-01T00:36:43;2.50;58.00
27671;DHT22;15077;49.704;9.908;2023-03-01T00:39:13;2.40;58.00
27671;DHT22;15077;49.704;9.908;2023-03-01T00:41:40;2.50;58.00
27671;DHT22;15077;49.704;9.908;2023-03-01T00:44:07;2.40;58.00
27671;DHT22;15077;49.704;9.908;2023-03-01T00:46:32;2.40;57.90
27671;DHT22;15077;49.704;9.908;2023-03-01T00:48:59;2.40;57.90
27671;DHT22;15077;49.704;9.908;2023-03-01T00:51:28;2.50;57.90
27671;DHT22;15077;49.704;9.908;2023-03-01T00:53:56;2.50;57.90
27671;DHT22;15077;49.704;9.908;2023-03-01T00:56:28;2.40;57.90
27671;DHT22;15077;49.704;9.908;2023-03-01T00:59:00;2.40;57.90
27671;DHT22;15077;49.704;9.908;2023-03-01T01:01:29;2.40;57.90
27671;DHT22;15077;49.704;9.908;2023-03-01T01:04:03;2.40;57.90
27671;DHT22;15077;49.704;9.908;2023-03-01T01:06:34;2.40;57.90
27671;DHT22;15077;49.704;9.908;2023-03-01T01:09:13;2.40;57.90
27671;DHT22;15077;49.704;9.908;2023-03-01T01:11:51;2.40;57.90
27671;DHT22;15077;49.704;9.908;2023-03-01T01:14:18;2.30;57.90
27671;DHT22;15077;49.704;9.908;2023-03-01T01:16:46;2.30;57.80
27671;DHT22;15077;49.704;9.908;2023-03-01T01:19:12;2.30;57.80
27671;DHT22;15077;49.704;9.908;2023-03-01T01:21:39;2.30;57.80
27671;DHT22;15077;49.704;9.908;2023-03-01T01:24:06;2.30;57.80
27671;DHT22;15077;49.704;9.908;2023-03-01T01:26:33;2.30;57.80
27671;DHT22;15077;49.704;9.908;2023-03-01T01:29:00;2.30;57.80
27671;DHT22;15077;49.704;9.908;2023-03-01T01:31:28;2.30;57.80
27671;DHT22;15077;49.704;9.908;2023-03-01T01:33:57;2.20;57.70
27671;DHT22;15077;49.704;9.908;2023-03-01T01:36:27;2.20;57.80
27671;DHT22;15077;49.704;9.908;2023-03-01T01:38:55;2.20;57.80
27671;DHT22;15077;49.704;9.908;2023-03-01T01:41:25;2.20;57.80
27671;DHT22;15077;49.704;9.908;2023-03-01T01:47:06;2.10;57.80
27671;DHT22;15077;49.704;9.908;2023-03-01T01:49:48;2.10;57.80
27671;DHT22;15077;49.704;9.908;2023-03-01T01:52:31;2.10;57.80
27671;DHT22;15077;49.704;9.908;2023-03-01T01:55:05;2.10;57.80
27671;DHT22;15077;49.704;9.908;2023-03-01T01:57:46;2.00;57.70
27671;DHT22;15077;49.704;9.908;2023-03-01T02:00:20;2.10;57.90
27671;DHT22;15077;49.704;9.908;2023-03-01T02:02:51;2.00;57.80
27671;DHT22;15077;49.704;9.908;2023-03-01T02:07:56;2.00;57.80
27671;DHT22;15077;49.704;9.908;2023-03-01T02:10:25;2.00;57.90
27671;DHT22;15077;49.704;9.908;2023-03-01T02:12:56;2.00;57.90
27671;DHT22;15077;49.704;9.908;2023-03-01T02:15:24;2.00;57.90
27671;DHT22;15077;49.704;9.908;2023-03-01T02:17:52;2.00;57.90
27671;DHT22;15077;49.704;9.908;2023-03-01T02:20:24;2.00;57.90
27671;DHT22;15077;49.704;9.908;2023-03-01T02:22:55;2.00;57.90
27671;DHT22;15077;49.704;9.908;2023-03-01T02:28:46;1.90;57.90
27671;DHT22;15077;49.704;9.908;2023-03-01T02:31:19;1.90;57.90
27671;DHT22;15077;49.704;9.908;2023-03-01T02:34:06;1.90;57.90
27671;DHT22;15077;49.704;9.908;2023-03-01T02:36:44;1.90;57.90
27671;DHT22;15077;49.704;9.908;2023-03-01T02:39:17;1.90;58.00
27671;DHT22;15077;49.704;9.908;2023-03-01T02:41:51;1.90;58.00
27671;DHT22;15077;49.704;9.908;2023-03-01T02:44:21;1.90;58.00
27671;DHT22;15077;49.704;9.908;2023-03-01T02:46:53;1.80;58.50
27671;DHT22;15077;49.704;9.908;2023-03-01T02:49:24;1.90;58.00
27671;DHT22;15077;49.704;9.908;2023-03-01T02:52:30;1.90;58.00
27671;DHT22;15077;49.704;9.908;2023-03-01T02:55:00;1.80;58.10
27671;DHT22;15077;49.704;9.908;2023-03-01T02:57:34;1.80;57.90
27671;DHT22;15077;49.704;9.908;2023-03-01T03:00:07;1.80;58.00
27671;DHT22;15077;49.704;9.908;2023-03-01T03:02:51;1.80;58.10
27671;DHT22;15077;49.704;9.908;2023-03-01T03:05:30;1.80;58.00
27671;DHT22;15077;49.704;9.908;2023-03-01T03:07:58;1.80;58.10
27671;DHT22;15077;49.704;9.908;2023-03-01T03:10:33;1.80;58.00
27671;DHT22;15077;49.704;9.908;2023-03-01T03:13:11;1.80;58.00
27671;DHT22;15077;49.704;9.908;2023-03-01T03:15:43;1.80;58.10
27671;DHT22;15077;49.704;9.908;2023-03-01T03:18:14;1.70;58.00
27671;DHT22;15077;49.704;9.908;2023-03-01T03:20:44;1.70;58.00
27671;DHT22;15077;49.704;9.908;2023-03-01T03:23:13;1.70;58.00
27671;DHT22;15077;49.704;9.908;2023-03-01T03:25:41;1.70;58.00
27671;DHT22;15077;49.704;9.908;2023-03-01T03:28:07;1.70;58.00
27671;DHT22;15077;49.704;9.908;2023-03-01T03:30:38;1.70;57.90
27671;DHT22;15077;49.704;9.908;2023-03-01T03:33:08;1.70;58.00
27671;DHT22;15077;49.704;9.908;2023-03-01T03:35:42;1.70;58.00
27671;DHT22;15077;49.704;9.908;2023-03-01T03:38:12;1.70;58.00
27671;DHT22;15077;49.704;9.908;2023-03-01T03:41:03;1.60;57.90
27671;DHT22;15077;49.704;9.908;2023-03-01T03:43:35;1.60;58.00
27671;DHT22;15077;49.704;9.908;2023-03-01T03:46:05;1.60;57.90
27671;DHT22;15077;49.704;9.908;2023-03-01T03:48:36;1.60;57.90
27671;DHT22;15077;49.704;9.908;2023-03-01T03:51:11;1.50;57.90
27671;DHT22;15077;49.704;9.908;2023-03-01T03:53:39;1.50;57.90
27671;DHT22;15077;49.704;9.908;2023-03-01T03:56:06;1.50;57.90
27671;DHT22;15077;49.704;9.908;2023-03-01T03:58:33;1.50;58.00
27671;DHT22;15077;49.704;9.908;2023-03-01T04:00:59;1.40;57.90
27671;DHT22;15077;49.704;9.908;2023-03-01T04:03:27;1.40;58.00
27671;DHT22;15077;49.704;9.908;2023-03-01T04:05:54;1.40;58.10
27671;DHT22;15077;49.704;9.908;2023-03-01T04:08:22;1.40;58.00
27671;DHT22;15077;49.704;9.908;2023-03-01T04:10:52;1.40;58.00
27671;DHT22;15077;49.704;9.908;2023-03-01T04:13:24;1.40;58.10
27671;DHT22;15077;49.704;9.908;2023-03-01T04:15:52;1.40;58.10
27671;DHT22;15077;49.704;9.908;2023-03-01T04:18:20;1.30;58.10
27671;DHT22;15077;49.704;9.908;2023-03-01T04:20:47;1.30;58.70
27671;DHT22;15077;49.704;9.908;2023-03-01T04:23:18;1.30;58.10
27671;DHT22;15077;49.704;9.908;2023-03-01T04:25:57;1.30;58.20
27671;DHT22;15077;49.704;9.908;2023-03-01T04:28:34;1.30;58.30
27671;DHT22;15077;49.704;9.908;2023-03-01T04:31:08;1.30;58.30
27671;DHT22;15077;49.704;9.908;2023-03-01T04:33:41;1.30;58.30
27671;DHT22;15077;49.704;9.908;2023-03-01T04:36:08;1.30;58.20
27671;DHT22;15077;49.704;9.908;2023-03-01T04:38:39;1.30;58.20
27671;DHT22;15077;49.704;9.908;2023-03-01T04:41:07;1.30;58.20
27671;DHT22;15077;49.704;9.908;2023-03-01T04:43:35;1.30;58.30
27671;DHT22;15077;49.704;9.908;2023-03-01T04:46:04;1.30;58.30
27671;DHT22;15077;49.704;9.908;2023-03-01T04:48:33;1.20;58.20
27671;DHT22;15077;49.704;9.908;2023-03-01T04:51:00;1.20;58.90
27671;DHT22;15077;49.704;9.908;2023-03-01T04:53:28;1.20;58.10
27671;DHT22;15077;49.704;9.908;2023-03-01T04:55:56;1.20;58.10
27671;DHT22;15077;49.704;9.908;2023-03-01T04:58:23;1.20;58.10
27671;DHT22;15077;49.704;9.908;2023-03-01T05:00:50;1.20;58.20
27671;DHT22;15077;49.704;9.908;2023-03-01T05:03:17;1.20;58.20
27671;DHT22;15077;49.704;9.908;2023-03-01T05:05:44;1.10;58.20
27671;DHT22;15077;49.704;9.908;2023-03-01T05:08:12;1.10;58.20
27671;DHT22;15077;49.704;9.908;2023-03-01T05:11:00;1.10;58.20
27671;DHT22;15077;49.704;9.908;2023-03-01T05:13:26;1.10;58.20
27671;DHT22;15077;49.704;9.908;2023-03-01T05:15:55;1.10;58.20
27671;DHT22;15077;49.704;9.908;2023-03-01T05:18:24;1.10;58.30
27671;DHT22;15077;49.704;9.908;2023-03-01T05:20:52;1.10;58.30
27671;DHT22;15077;49.704;9.908;2023-03-01T05:23:22;1.10;58.40
27671;DHT22;15077;49.704;9.908;2023-03-01T05:25:48;1.00;58.40
27671;DHT22;15077;49.704;9.908;2023-03-01T05:28:15;1.00;58.40
27671;DHT22;15077;49.704;9.908;2023-03-01T05:30:41;1.00;58.40
27671;DHT22;15077;49.704;9.908;2023-03-01T05:33:08;1.00;58.50
27671;DHT22;15077;49.704;9.908;2023-03-01T05:35:43;1.00;58.60
27671;DHT22;15077;49.704;9.908;2023-03-01T05:38:12;1.00;58.60
27671;DHT22;15077;49.704;9.908;2023-03-01T05:40:46;1.00;58.60
27671;DHT22;15077;49.704;9.908;2023-03-01T05:43:15;1.00;58.70
27671;DHT22;15077;49.704;9.908;2023-03-01T05:45:42;0.90;58.60
27671;DHT22;15077;49.704;9.908;2023-03-01T05:48:10;0.90;58.60
27671;DHT22;15077;49.704;9.908;2023-03-01T05:50:39;0.90;58.70
27671;DHT22;15077;49.704;9.908;2023-03-01T05:55:39;0.90;58.70
27671;DHT22;15077;49.704;9.908;2023-03-01T05:58:07;0.90;58.70
27671;DHT22;15077;49.704;9.908;2023-03-01T06:00:35;0.90;58.70
27671;DHT22;15077;49.704;9.908;2023-03-01T06:03:02;0.90;58.70
27671;DHT22;15077;49.704;9.908;2023-03-01T06:05:28;0.90;58.80
27671;DHT22;15077;49.704;9.908;2023-03-01T06:07:54;0.90;58.80
27671;DHT22;15077;49.704;9.908;2023-03-01T06:10:21;0.90;58.80
27671;DHT22;15077;49.704;9.908;2023-03-01T06:12:48;0.80;58.80
27671;DHT22;15077;49.704;9.908;2023-03-01T06:15:15;0.90;58.80
27671;DHT22;15077;49.704;9.908;2023-03-01T06:17:43;0.80;58.80
27671;DHT22;15077;49.704;9.908;2023-03-01T06:20:19;0.90;58.80
27671;DHT22;15077;49.704;9.908;2023-03-01T06:22:47;0.90;58.80
27671;DHT22;15077;49.704;9.908;2023-03-01T06:25:17;0.90;58.80
27671;DHT22;15077;49.704;9.908;2023-03-01T06:27:45;0.90;58.80
27671;DHT22;15077;49.704;9.908;2023-03-01T06:30:13;0.90;58.80
27671;DHT22;15077;49.704;9.908;2023-03-01T06:32:41;0.90;58.80
27671;DHT22;15077;49.704;9.908;2023-03-01T06:35:13;0.90;58.90
27671;DHT22;15077;49.704;9.908;2023-03-01T06:37:42;0.90;58.90
27671;DHT22;15077;49.704;9.908;2023-03-01T06:40:10;0.90;58.90
27671;DHT22;15077;49.704;9.908;2023-03-01T06:42:38;0.90;58.90
27671;DHT22;15077;49.704;9.908;2023-03-01T06:45:05;0.90;59.00
27671;DHT22;15077;49.704;9.908;2023-03-01T06:47:33;0.90;59.10
27671;DHT22;15077;49.704;9.908;2023-03-01T06:50:02;0.90;59.10
27671;DHT22;15077;49.704;9.908;2023-03-01T06:52:29;0.90;59.30
27671;DHT22;15077;49.704;9.908;2023-03-01T06:54:55;0.90;59.30
27671;DHT22;15077;49.704;9.908;2023-03-01T06:57:21;0.90;59.50
27671;DHT22;15077;49.704;9.908;2023-03-01T06:59:47;0.90;59.70
27671;DHT22;15077;49.704;9.908;2023-03-01T07:02:14;0.90;60.00
27671;DHT22;15077;49.704;9.908;2023-03-01T07:04:40;0.90;60.50
27671;DHT22;15077;49.704;9.908;2023-03-01T07:07:07;0.90;60.60
27671;DHT22;15077;49.704;9.908;2023-03-01T07:09:33;0.90;60.90
27671;DHT22;15077;49.704;9.908;2023-03-01T07:11:59;0.90;61.10
27671;DHT22;15077;49.704;9.908;2023-03-01T07:14:25;1.00;61.20
27671;DHT22;15077;49.704;9.908;2023-03-01T07:16:54;1.00;61.20
27671;DHT22;15077;49.704;9.908;2023-03-01T07:19:21;1.00;61.30
27671;DHT22;15077;49.704;9.908;2023-03-01T07:21:47;1.00;61.30
27671;DHT22;15077;49.704;9.908;2023-03-01T07:24:13;1.10;61.50
27671;DHT22;15077;49.704;9.908;2023-03-01T07:26:39;1.10;61.60
27671;DHT22;15077;49.704;9.908;2023-03-01T07:29:07;1.20;61.90
27671;DHT22;15077;49.704;9.908;2023-03-01T07:31:34;1.20;62.00
27671;DHT22;15077;49.704;9.908;2023-03-01T07:34:01;1.30;62.00
27671;DHT22;15077;49.704;9.908;2023-03-01T07:36:26;1.30;62.20
27671;DHT22;15077;49.704;9.908;2023-03-01T07:38:52;1.40;62.70
27671;DHT22;15077;49.704;9.908;2023-03-01T07:41:18;1.40;62.10
27671;DHT22;15077;49.704;9.908;2023-03-01T07:43:44;1.50;62.10
27671;DHT22;15077;49.704;9.908;2023-03-01T07:46:09;1.50;62.30
27671;DHT22;15077;49.704;9.908;2023-03-01T07:48:35;1.60;62.30
27671;DHT22;15077;49.704;9.908;2023-03-01T07:51:02;1.60;62.40
27671;DHT22;15077;49.704;9.908;2023-03-01T07:53:29;1.70;62.80
27671;DHT22;15077;49.704;9.908;2023-03-01T07:56:09;1.80;62.80
27671;DHT22;15077;49.704;9.908;2023-03-01T07:58:37;1.90;63.20
27671;DHT22;15077;49.704;9.908;2023-03-01T08:01:07;2.00;63.30
27671;DHT22;15077;49.704;9.908;2023-03-01T08:03:35;2.00;63.10
27671;DHT22;15077;49.704;9.908;2023-03-01T08:06:06;2.10;63.00
27671;DHT22;15077;49.704;9.908;2023-03-01T08:08:34;2.10;63.20
27671;DHT22;15077;49.704;9.908;2023-03-01T08:11:03;2.20;63.10
27671;DHT22;15077;49.704;9.908;2023-03-01T08:13:30;2.20;63.20
27671;DHT22;15077;49.704;9.908;2023-03-01T08:16:04;2.30;63.20
27671;DHT22;15077;49.704;9.908;2023-03-01T08:18:31;2.40;63.30
27671;DHT22;15077;49.704;9.908;2023-03-01T08:21:05;2.40;63.10
27671;DHT22;15077;49.704;9.908;2023-03-01T08:23:32;2.50;63.10
27671;DHT22;15077;49.704;9.908;2023-03-01T08:28:31;2.60;63.20
27671;DHT22;15077;49.704;9.908;2023-03-01T08:30:57;2.70;63.10
27671;DHT22;15077;49.704;9.908;2023-03-01T08:33:24;2.70;63.10
27671;DHT22;15077;49.704;9.908;2023-03-01T08:35:49;2.80;63.30
27671;DHT22;15077;49.704;9.908;2023-03-01T08:38:15;2.90;63.30
27671;DHT22;15077;49.704;9.908;2023-03-01T08:40:41;2.90;63.40
27671;DHT22;15077;49.704;9.908;2023-03-01T08:43:06;3.00;63.20
27671;DHT22;15077;49.704;9.908;2023-03-01T08:45:32;3.10;63.40
27671;DHT22;15077;49.704;9.908;2023-03-01T08:47:58;3.20;63.00
27671;DHT22;15077;49.704;9.908;2023-03-01T08:50:24;3.20;62.60
27671;DHT22;15077;49.704;9.908;2023-03-01T08:52:50;3.30;62.40
27671;DHT22;15077;49.704;9.908;2023-03-01T08:55:16;3.40;62.60
27671;DHT22;15077;49.704;9.908;2023-03-01T08:57:43;3.40;62.60
27671;DHT22;15077;49.704;9.908;2023-03-01T09:00:10;3.50;62.50
27671;DHT22;15077;49.704;9.908;2023-03-01T09:02:40;3.60;61.80
27671;DHT22;15077;49.704;9.908;2023-03-01T09:05:06;3.70;61.90
27671;DHT22;15077;49.704;9.908;2023-03-01T09:07:32;3.70;62.00
27671;DHT22;15077;49.704;9.908;2023-03-01T09:09:57;3.80;62.00
27671;DHT22;15077;49.704;9.908;2023-03-01T09:12:23;3.90;61.50
27671;DHT22;15077;49.704;9.908;2023-03-01T09:14:50;3.90;61.50
27671;DHT22;15077;49.704;9.908;2023-03-01T09:17:16;4.00;61.30
27671;DHT22;15077;49.704;9.908;2023-03-01T09:19:42;4.10;61.40
27671;DHT22;15077;49.704;9.908;2023-03-01T09:22:07;4.10;61.20
27671;DHT22;15077;49.704;9.908;2023-03-01T09:24:33;4.20;61.10
27671;DHT22;15077;49.704;9.908;2023-03-01T09:26:59;4.30;60.40
27671;DHT22;15077;49.704;9.908;2023-03-01T09:29:24;4.30;60.60
27671;DHT22;15077;49.704;9.908;2023-03-01T09:31:51;4.40;60.60
27671;DHT22;15077;49.704;9.908;2023-03-01T09:34:22;4.40;60.40
27671;DHT22;15077;49.704;9.908;2023-03-01T09:36:52;4.50;60.20
27671;DHT22;15077;49.704;9.908;2023-03-01T09:39:18;4.60;60.00
27671;DHT22;15077;49.704;9.908;2023-03-01T09:41:55;4.70;60.30
27671;DHT22;15077;49.704;9.908;2023-03-01T09:44:48;4.80;60.10
27671;DHT22;15077;49.704;9.908;2023-03-01T09:47:24;4.90;60.20
27671;DHT22;15077;49.704;9.908;2023-03-01T09:50:06;5.00;60.40
27671;DHT22;15077;49.704;9.908;2023-03-01T09:52:54;5.20;60.10
27671;DHT22;15077;49.704;9.908;2023-03-01T09:55:43;5.40;59.80
27671;DHT22;15077;49.704;9.908;2023-03-01T09:58:47;5.60;59.40
27671;DHT22;15077;49.704;9.908;2023-03-01T10:01:50;5.80;59.50
27671;DHT22;15077;49.704;9.908;2023-03-01T10:07:36;6.20;59.40
27671;DHT22;15077;49.704;9.908;2023-03-01T10:10:32;6.50;59.00
27671;DHT22;15077;49.704;9.908;2023-03-01T10:15:48;6.90;58.10
27671;DHT22;15077;49.704;9.908;2023-03-01T10:18:23;7.00;57.00
27671;DHT22;15077;49.704;9.908;2023-03-01T10:23:18;7.30;57.70
27671;DHT22;15077;49.704;9.908;2023-03-01T10:28:31;7.50;56.70
27671;DHT22;15077;49.704;9.908;2023-03-01T10:31:32;7.60;56.50
27671;DHT22;15077;49.704;9.908;2023-03-01T10:34:18;7.80;56.00
27671;DHT22;15077;49.704;9.908;2023-03-01T10:36:51;7.90;56.20
27671;DHT22;15077;49.704;9.908;2023-03-01T10:39:23;8.00;56.10
27671;DHT22;15077;49.704;9.908;2023-03-01T10:44:48;8.30;55.90
27671;DHT22;15077;49.704;9.908;2023-03-01T10:47:19;8.40;56.40
27671;DHT22;15077;49.704;9.908;2023-03-01T10:49:58;8.60;54.50
27671;DHT22;15077;49.704;9.908;2023-03-01T10:55:42;8.80;52.90
27671;DHT22;15077;49.704;9.908;2023-03-01T10:58:19;8.90;53.60
27671;DHT22;15077;49.704;9.908;2023-03-01T11:00:51;8.90;52.60
27671;DHT22;15077;49.704;9.908;2023-03-01T11:08:41;9.10;52.80
27671;DHT22;15077;49.704;9.908;2023-03-01T11:11:24;9.10;51.60
27671;DHT22;15077;49.704;9.908;2023-03-01T11:16:40;9.30;52.30
27671;DHT22;15077;49.704;9.908;2023-03-01T11:21:40;9.50;51.30
27671;DHT22;15077;49.704;9.908;2023-03-01T11:24:11;9.50;51.30
27671;DHT22;15077;49.704;9.908;2023-03-01T11:26:42;9.60;51.70
27671;DHT22;15077;49.704;9.908;2023-03-01T11:29:26;9.60;51.40
27671;DHT22;15077;49.704;9.908;2023-03-01T11:31:59;9.70;52.50
27671;DHT22;15077;49.704;9.908;2023-03-01T11:34:56;9.80;51.40
27671;DHT22;15077;49.704;9.908;2023-03-01T11:37:40;10.00;52.00
27671;DHT22;15077;49.704;9.908;2023-03-01T11:40:26;10.00;51.50
27671;DHT22;15077;49.704;9.908;2023-03-01T11:49:24;10.20;50.50
27671;DHT22;15077;49.704;9.908;2023-03-01T11:52:46;10.20;50.30
27671;DHT22;15077;49.704;9.908;2023-03-01T11:55:31;10.30;51.20
27671;DHT22;15077;49.704;9.908;2023-03-01T12:01:31;10.50;50.10
27671;DHT22;15077;49.704;9.908;2023-03-01T12:04:15;10.50;49.80
27671;DHT22;15077;49.704;9.908;2023-03-01T12:06:49;10.50;50.10
27671;DHT22;15077;49.704;9.908;2023-03-01T12:33:11;10.80;48.90
27671;DHT22;15077;49.704;9.908;2023-03-01T12:38:49;10.80;48.50
27671;DHT22;15077;49.704;9.908;2023-03-01T12:50:49;10.80;48.60
27671;DHT22;15077;49.704;9.908;2023-03-01T12:53:31;10.80;48.50
27671;DHT22;15077;49.704;9.908;2023-03-01T12:56:13;10.80;48.20
27671;DHT22;15077;49.704;9.908;2023-03-01T13:07:50;10.80;48.60
27671;DHT22;15077;49.704;9.908;2023-03-01T13:10:34;10.80;47.90
27671;DHT22;15077;49.704;9.908;2023-03-01T13:15:38;10.80;48.40
27671;DHT22;15077;49.704;9.908;2023-03-01T13:20:49;10.80;48.30
27671;DHT22;15077;49.704;9.908;2023-03-01T13:26:15;10.80;47.00
27671;DHT22;15077;49.704;9.908;2023-03-01T13:33:54;10.70;48.20
27671;DHT22;15077;49.704;9.908;2023-03-01T13:52:45;10.60;47.60
27671;DHT22;15077;49.704;9.908;2023-03-01T13:58:00;10.60;47.30
27671;DHT22;15077;49.704;9.908;2023-03-01T14:00:37;10.60;47.50
27671;DHT22;15077;49.704;9.908;2023-03-01T14:03:19;10.60;47.60
27671;DHT22;15077;49.704;9.908;2023-03-01T14:06:07;10.50;48.20
27671;DHT22;15077;49.704;9.908;2023-03-01T14:08:45;10.50;47.60
27671;DHT22;15077;49.704;9.908;2023-03-01T14:11:35;10.50;47.40
27671;DHT22;15077;49.704;9.908;2023-03-01T14:20:02;10.40;48.30
27671;DHT22;15077;49.704;9.908;2023-03-01T14:22:36;10.40;48.00
27671;DHT22;15077;49.704;9.908;2023-03-01T14:25:21;10.30;47.80
27671;DHT22;15077;49.704;9.908;2023-03-01T14:28:19;10.30;48.20
27671;DHT22;15077;49.704;9.908;2023-03-01T14:30:51;10.30;48.50
27671;DHT22;15077;49.704;9.908;2023-03-01T14:33:29;10.30;48.40
27671;DHT22;15077;49.704;9.908;2023-03-01T14:36:00;10.30;48.30
27671;DHT22;15077;49.704;9.908;2023-03-01T14:38:36;10.20;48.50
27671;DHT22;15077;49.704;9.908;2023-03-01T14:43:38;10.30;48.50
27671;DHT22;15077;49.704;9.908;2023-03-01T14:46:11;10.30;48.30
27671;DHT22;15077;49.704;9.908;2023-03-01T14:48:44;10.30;48.00
27671;DHT22;15077;49.704;9.908;2023-03-01T14:51:11;10.30;47.90
27671;DHT22;15077;49.704;9.908;2023-03-01T14:53:37;10.30;47.80
27671;DHT22;15077;49.704;9.908;2023-03-01T14:56:03;10.30;48.20
27671;DHT22;15077;49.704;9.908;2023-03-01T14:58:32;10.30;48.60
27671;DHT22;15077;49.704;9.908;2023-03-01T15:01:01;10.30;47.90
27671;DHT22;15077;49.704;9.908;2023-03-01T15:03:38;10.30;48.60
27671;DHT22;15077;49.704;9.908;2023-03-01T15:06:09;10.30;49.50
27671;DHT22;15077;49.704;9.908;2023-03-01T15:08:37;10.30;49.40
27671;DHT22;15077;49.704;9.908;2023-03-01T15:13:39;10.30;48.40
27671;DHT22;15077;49.704;9.908;2023-03-01T15:16:18;10.30;48.50
27671;DHT22;15077;49.704;9.908;2023-03-01T15:21:38;10.40;48.40
27671;DHT22;15077;49.704;9.908;2023-03-01T15:24:17;10.40;48.60
27671;DHT22;15077;49.704;9.908;2023-03-01T15:27:00;10.30;48.00
27671;DHT22;15077;49.704;9.908;2023-03-01T15:29:32;10.30;48.50
27671;DHT22;15077;49.704;9.908;2023-03-01T15:32:31;10.30;48.40
27671;DHT22;15077;49.704;9.908;2023-03-01T15:34:58;10.30;48.60
27671;DHT22;15077;49.704;9.908;2023-03-01T15:37:49;10.30;48.30
27671;DHT22;15077;49.704;9.908;2023-03-01T15:40:23;10.30;48.60
27671;DHT22;15077;49.704;9.908;2023-03-01T15:43:03;10.20;48.50
27671;DHT22;15077;49.704;9.908;2023-03-01T15:45:32;10.20;48.80
27671;DHT22;15077;49.704;9.908;2023-03-01T15:48:04;10.20;48.40
27671;DHT22;15077;49.704;9.908;2023-03-01T15:50:40;10.20;49.10
27671;DHT22;15077;49.704;9.908;2023-03-01T15:53:13;10.20;49.50
27671;DHT22;15077;49.704;9.908;2023-03-01T15:55:41;10.20;49.30
27671;DHT22;15077;49.704;9.908;2023-03-01T15:58:13;10.20;48.60
27671;DHT22;15077;49.704;9.908;2023-03-01T16:00:48;10.20;48.80
27671;DHT22;15077;49.704;9.908;2023-03-01T16:03:17;10.10;48.80
27671;DHT22;15077;49.704;9.908;2023-03-01T16:05:47;10.10;48.40
27671;DHT22;15077;49.704;9.908;2023-03-01T16:08:15;10.10;48.60
27671;DHT22;15077;49.704;9.908;2023-03-01T16:10:41;10.10;48.40
27671;DHT22;15077;49.704;9.908;2023-03-01T16:13:11;10.00;48.50
27671;DHT22;15077;49.704;9.908;2023-03-01T16:15:38;10.00;48.70
27671;DHT22;15077;49.704;9.908;2023-03-01T16:18:05;9.90;48.60
27671;DHT22;15077;49.704;9.908;2023-03-01T16:20:33;9.90;48.90
27671;DHT22;15077;49.704;9.908;2023-03-01T16:23:02;9.80;48.60
27671;DHT22;15077;49.704;9.908;2023-03-01T16:25:30;9.80;48.90
27671;DHT22;15077;49.704;9.908;2023-03-01T16:27:57;9.70;48.90
27671;DHT22;15077;49.704;9.908;2023-03-01T16:30:26;9.70;49.30
27671;DHT22;15077;49.704;9.908;2023-03-01T16:32:52;9.60;49.30
27671;DHT22;15077;49.704;9.908;2023-03-01T16:35:21;9.50;49.40
27671;DHT22;15077;49.704;9.908;2023-03-01T16:37:48;9.50;49.70
27671;DHT22;15077;49.704;9.908;2023-03-01T16:40:18;9.40;50.00
27671;DHT22;15077;49.704;9.908;2023-03-01T16:42:50;9.30;50.10
27671;DHT22;15077;49.704;9.908;2023-03-01T16:45:17;9.20;49.90
27671;DHT22;15077;49.704;9.908;2023-03-01T16:47:44;9.10;50.70
27671;DHT22;15077;49.704;9.908;2023-03-01T16:50:10;9.10;50.40
27671;DHT22;15077;49.704;9.908;2023-03-01T16:52:36;9.00;50.50
27671;DHT22;15077;49.704;9.908;2023-03-01T16:55:05;9.00;50.70
27671;DHT22;15077;49.704;9.908;2023-03-01T16:57:34;8.90;50.80
27671;DHT22;15077;49.704;9.908;2023-03-01T17:00:00;8.80;50.80
27671;DHT22;15077;49.704;9.908;2023-03-01T17:02:25;8.80;50.80
27671;DHT22;15077;49.704;9.908;2023-03-01T17:04:53;8.80;50.80
27671;DHT22;15077;49.704;9.908;2023-03-01T17:07:20;8.80;51.10
27671;DHT22;15077;49.704;9.908;2023-03-01T17:09:46;8.70;51.20
27671;DHT22;15077;49.704;9.908;2023-03-01T17:12:13;8.60;51.20
27671;DHT22;15077;49.704;9.908;2023-03-01T17:14:40;8.60;51.40
27671;DHT22;15077;49.704;9.908;2023-03-01T17:17:10;8.50;51.60
27671;DHT22;15077;49.704;9.908;2023-03-01T17:19:37;8.40;51.70
27671;DHT22;15077;49.704;9.908;2023-03-01T17:22:09;8.40;51.80
27671;DHT22;15077;49.704;9.908;2023-03-01T17:24:40;8.30;52.00
27671;DHT22;15077;49.704;9.908;2023-03-01T17:27:07;8.30;52.10
27671;DHT22;15077;49.704;9.908;2023-03-01T17:29:33;8.20;52.20
27671;DHT22;15077;49.704;9.908;2023-03-01T17:32:00;8.20;52.30
27671;DHT22;15077;49.704;9.908;2023-03-01T17:34:26;8.10;52.50
27671;DHT22;15077;49.704;9.908;2023-03-01T17:36:52;8.10;52.70
27671;DHT22;15077;49.704;9.908;2023-03-01T17:39:19;8.00;52.80
27671;DHT22;15077;49.704;9.908;2023-03-01T17:41:53;8.00;52.90
27671;DHT22;15077;49.704;9.908;2023-03-01T17:44:19;7.90;53.00
27671;DHT22;15077;49.704;9.908;2023-03-01T17:46:45;7.80;53.20
27671;DHT22;15077;49.704;9.908;2023-03-01T17:49:11;7.80;53.20
27671;DHT22;15077;49.704;9.908;2023-03-01T17:51:37;7.70;53.50
27671;DHT22;15077;49.704;9.908;2023-03-01T17:54:03;7.70;53.60
27671;DHT22;15077;49.704;9.908;2023-03-01T17:56:29;7.60;53.70
27671;DHT22;15077;49.704;9.908;2023-03-01T17:58:58;7.60;53.80
27671;DHT22;15077;49.704;9.908;2023-03-01T18:01:24;7.50;54.10
27671;DHT22;15077;49.704;9.908;2023-03-01T18:03:51;7.50;54.20
27671;DHT22;15077;49.704;9.908;2023-03-01T18:06:21;7.40;54.20
27671;DHT22;15077;49.704;9.908;2023-03-01T18:08:51;7.40;54.60
27671;DHT22;15077;49.704;9.908;2023-03-01T18:11:23;7.30;54.80
27671;DHT22;15077;49.704;9.908;2023-03-01T18:13:50;7.30;55.00
27671;DHT22;15077;49.704;9.908;2023-03-01T18:16:18;7.20;55.10
27671;DHT22;15077;49.704;9.908;2023-03-01T18:18:46;7.10;55.00
27671;DHT22;15077;49.704;9.908;2023-03-01T18:21:13;7.10;56.00
27671;DHT22;15077;49.704;9.908;2023-03-01T18:23:40;7.00;55.40
27671;DHT22;15077;49.704;9.908;2023-03-01T18:26:09;7.00;55.50
27671;DHT22;15077;49.704;9.908;2023-03-01T18:28:37;6.90;55.50